sensor_id;sensor_type;location;lat;lon;timestamp;P1;durP1;ratioP1;P2;durP2;ratioP2
20181;SDS011;10250;50.756;6.172;2023-04-16T00:01:49;4.53;;;1.17;;
20181;SDS011;10250;50.756;6.172;2023-04-16T00:03:50;4.53;;;1.60;;
20181;SDS011;10250;50.756;6.172;2023-04-16T00:05:51;4.23;;;1.40;;
20181;SDS011;10250;50.756;6.172;2023-04-16T00:07:54;4.27;;;1.30;;
20181;SDS011;10250;50.756;6.172;2023-04-16T00:09:55;2.50;;;1.10;;
20181;SDS011;10250;50.756;6.172;2023-04-16T00:11:55;6.70;;;1.30;;
20181;SDS011;10250;50.756;6.172;2023-04-16T00:13:56;1.97;;;1.00;;
20181;SDS011;10250;50.756;6.172;2023-04-16T00:15:56;3.70;;;1.30;;
20181;SDS011;10250;50.756;6.172;2023-04-16T00:17:58;4.37;;;1.33;;
20181;SDS011;10250;50.756;6.172;2023-04-16T00:19:58;4.33;;;1.30;;
20181;SDS011;10250;50.756;6.172;2023-04-16T00:21:59;3.80;;;1.43;;
20181;SDS011;10250;50.756;6.172;2023-04-16T00:23:59;5.83;;;1.20;;
20181;SDS011;10250;50.756;6.172;2023-04-16T00:26:00;6.73;;;1.50;;
20181;SDS011;10250;50.756;6.172;2023-04-16T00:28:00;2.97;;;1.20;;
20181;SDS011;10250;50.756;6.172;2023-04-16T00:30:02;5.63;;;1.50;;
20181;SDS011;10250;50.756;6.172;2023-04-16T00:32:02;6.97;;;1.53;;
20181;SDS011;10250;50.756;6.172;2023-04-16T00:34:03;4.43;;;1.37;;
20181;SDS011;10250;50.756;6.172;2023-04-16T00:36:03;5.50;;;1.60;;
20181;SDS011;10250;50.756;6.172;2023-04-16T00:38:04;6.40;;;1.70;;
20181;SDS011;10250;50.756;6.172;2023-04-16T00:40:05;5.23;;;1.40;;
20181;SDS011;10250;50.756;6.172;2023-04-16T00:42:06;3.53;;;1.30;;
20181;SDS011;10250;50.756;6.172;2023-04-16T00:44:06;7.07;;;1.90;;
20181;SDS011;10250;50.756;6.172;2023-04-16T00:46:07;6.37;;;1.43;;
20181;SDS011;10250;50.756;6.172;2023-04-16T00:48:08;4.37;;;1.37;;
20181;SDS011;10250;50.756;6.172;2023-04-16T00:50:09;6.27;;;1.67;;
20181;SDS011;10250;50.756;6.172;2023-04-16T00:52:11;4.23;;;1.43;;
20181;SDS011;10250;50.756;6.172;2023-04-16T00:54:11;4.90;;;1.33;;
20181;SDS011;10250;50.756;6.172;2023-04-16T00:56:12;5.27;;;1.63;;
20181;SDS011;10250;50.756;6.172;2023-04-16T00:58:13;5.97;;;1.83;;
20181;SDS011;10250;50.756;6.172;2023-04-16T01:00:14;6.33;;;1.70;;
20181;SDS011;10250;50.756;6.172;2023-04-16T01:02:15;5.10;;;1.87;;
20181;SDS011;10250;50.756;6.172;2023-04-16T01:04:16;4.07;;;1.40;;
20181;SDS011;10250;50.756;6.172;2023-04-16T01:06:17;5.93;;;1.80;;
20181;SDS011;10250;50.756;6.172;2023-04-16T01:08:19;7.83;;;1.80;;
20181;SDS011;10250;50.756;6.172;2023-04-16T01:10:21;5.20;;;1.63;;
20181;SDS011;10250;50.756;6.172;2023-04-16T01:12:21;5.57;;;1.67;;
20181;SDS011;10250;50.756;6.172;2023-04-16T01:14:22;9.60;;;1.90;;
20181;SDS011;10250;50.756;6.172;2023-04-16T01:16:23;6.30;;;1.80;;
20181;SDS011;10250;50.756;6.172;2023-04-16T01:18:25;6.87;;;1.90;;
20181;SDS011;10250;50.756;6.172;2023-04-16T01:20:26;7.53;;;2.07;;
20181;SDS011;10250;50.756;6.172;2023-04-16T01:22:27;8.33;;;2.30;;
20181;SDS011;10250;50.756;6.172;2023-04-16T01:24:28;7.13;;;2.00;;
20181;SDS011;10250;50.756;6.172;2023-04-16T01:26:29;7.57;;;2.30;;
20181;SDS011;10250;50.756;6.172;2023-04-16T01:28:30;6.40;;;1.90;;
20181;SDS011;10250;50.756;6.172;2023-04-16T01:30:30;6.97;;;2.13;;
20181;SDS011;10250;50.756;6.172;2023-04-16T01:32:31;6.77;;;2.00;;
20181;SDS011;10250;50.756;6.172;2023-04-16T01:34:31;7.67;;;2.37;;
20181;SDS011;10250;50.756;6.172;2023-04-16T01:36:32;6.67;;;2.00;;
20181;SDS011;10250;50.756;6.172;2023-04-16T01:38:33;6.93;;;2.20;;
20181;SDS011;10250;50.756;6.172;2023-04-16T01:40:33;9.13;;;2.00;;
20181;SDS011;10250;50.756;6.172;2023-04-16T01:42:36;9.30;;;2.23;;
20181;SDS011;10250;50.756;6.172;2023-04-16T01:44:37;5.53;;;1.93;;
20181;SDS011;10250;50.756;6.172;2023-04-16T01:46:37;6.20;;;2.20;;
20181;SDS011;10250;50.756;6.172;2023-04-16T01:48:38;7.17;;;1.93;;
20181;SDS011;10250;50.756;6.172;2023-04-16T01:50:39;9.50;;;2.33;;
20181;SDS011;10250;50.756;6.172;2023-04-16T01:52:40;6.43;;;1.90;;
20181;SDS011;10250;50.756;6.172;2023-04-16T01:54:40;7.60;;;2.53;;
20181;SDS011;10250;50.756;6.172;2023-04-16T01:56:41;8.37;;;2.17;;
20181;SDS011;10250;50.756;6.172;2023-04-16T01:58:41;9.13;;;2.40;;
20181;SDS011;10250;50.756;6.172;2023-04-16T02:00:42;7.43;;;1.93;;
20181;SDS011;10250;50.756;6.172;2023-04-16T02:02:43;11.23;;;3.13;;
20181;SDS011;10250;50.756;6.172;2023-04-16T02:04:44;8.17;;;2.10;;
20181;SDS011;10250;50.756;6.172;2023-04-16T02:06:45;10.03;;;2.80;;
20181;SDS011;10250;50.756;6.172;2023-04-16T02:08:46;9.73;;;2.70;;
20181;SDS011;10250;50.756;6.172;2023-04-16T02:10:47;7.87;;;2.37;;
20181;SDS011;10250;50.756;6.172;2023-04-16T02:12:48;9.93;;;2.83;;
20181;SDS011;10250;50.756;6.172;2023-04-16T02:14:49;7.10;;;2.00;;
20181;SDS011;10250;50.756;6.172;2023-04-16T02:16:50;9.67;;;2.23;;
20181;SDS011;10250;50.756;6.172;2023-04-16T02:18:51;8.23;;;2.37;;
20181;SDS011;10250;50.756;6.172;2023-04-16T02:20:51;8.73;;;2.27;;
20181;SDS011;10250;50.756;6.172;2023-04-16T02:22:52;8.57;;;2.20;;
20181;SDS011;10250;50.756;6.172;2023-04-16T02:24:53;5.97;;;2.03;;
20181;SDS011;10250;50.756;6.172;2023-04-16T02:26:53;7.23;;;2.10;;
20181;SDS011;10250;50.756;6.172;2023-04-16T02:28:54;7.87;;;2.30;;
20181;SDS011;10250;50.756;6.172;2023-04-16T02:30:55;6.63;;;1.97;;
20181;SDS011;10250;50.756;6.172;2023-04-16T02:32:55;7.30;;;2.30;;
20181;SDS011;10250;50.756;6.172;2023-04-16T02:34:56;6.40;;;1.90;;
20181;SDS011;10250;50.756;6.172;2023-04-16T02:36:56;7.57;;;2.30;;
20181;SDS011;10250;50.756;6.172;2023-04-16T02:38:57;7.87;;;2.10;;
20181;SDS011;10250;50.756;6.172;2023-04-16T02:40:58;6.67;;;1.90;;
20181;SDS011;10250;50.756;6.172;2023-04-16T02:42:58;9.03;;;2.33;;
20181;SDS011;10250;50.756;6.172;2023-04-16T02:44:59;6.07;;;1.90;;
20181;SDS011;10250;50.756;6.172;2023-04-16T02:47:00;8.53;;;2.30;;
20181;SDS011;10250;50.756;6.172;2023-04-16T02:49:00;6.27;;;1.87;;
20181;SDS011;10250;50.756;6.172;2023-04-16T02:51:01;10.20;;;2.60;;
20181;SDS011;10250;50.756;6.172;2023-04-16T02:53:01;9.30;;;2.40;;
20181;SDS011;10250;50.756;6.172;2023-04-16T02:55:03;8.57;;;2.37;;
20181;SDS011;10250;50.756;6.172;2023-04-16T02:57:04;7.20;;;2.03;;
20181;SDS011;10250;50.756;6.172;2023-04-16T02:59:05;8.53;;;2.50;;
20181;SDS011;10250;50.756;6.172;2023-04-16T03:01:05;9.73;;;2.60;;
20181;SDS011;10250;50.756;6.172;2023-04-16T03:03:06;9.30;;;2.00;;
20181;SDS011;10250;50.756;6.172;2023-04-16T03:05:06;7.57;;;2.13;;
20181;SDS011;10250;50.756;6.172;2023-04-16T03:07:07;8.67;;;2.37;;
20181;SDS011;10250;50.756;6.172;2023-04-16T03:09:08;10.73;;;2.57;;
20181;SDS011;10250;50.756;6.172;2023-04-16T03:11:09;8.87;;;2.83;;
20181;SDS011;10250;50.756;6.172;2023-04-16T03:13:09;11.57;;;2.63;;
20181;SDS011;10250;50.756;6.172;2023-04-16T03:15:10;8.67;;;2.50;;
20181;SDS011;10250;50.756;6.172;2023-04-16T03:17:10;9.73;;;2.83;;
20181;SDS011;10250;50.756;6.172;2023-04-16T03:19:11;9.40;;;2.30;;
20181;SDS011;10250;50.756;6.172;2023-04-16T03:21:12;9.70;;;2.80;;
20181;SDS011;10250;50.756;6.172;2023-04-16T03:23:12;8.23;;;2.53;;
20181;SDS011;10250;50.756;6.172;2023-04-16T03:25:13;8.90;;;2.33;;
20181;SDS011;10250;50.756;6.172;2023-04-16T03:27:13;12.23;;;2.63;;
20181;SDS011;10250;50.756;6.172;2023-04-16T03:29:14;8.40;;;2.40;;
20181;SDS011;10250;50.756;6.172;2023-04-16T03:31:15;11.20;;;2.90;;
20181;SDS011;10250;50.756;6.172;2023-04-16T03:33:15;10.07;;;2.93;;
20181;SDS011;10250;50.756;6.172;2023-04-16T03:35:16;10.23;;;2.83;;
20181;SDS011;10250;50.756;6.172;2023-04-16T03:37:17;8.90;;;2.43;;
20181;SDS011;10250;50.756;6.172;2023-04-16T03:39:17;9.17;;;2.93;;
20181;SDS011;10250;50.756;6.172;2023-04-16T03:41:18;9.57;;;2.30;;
20181;SDS011;10250;50.756;6.172;2023-04-16T03:43:18;8.83;;;2.60;;
20181;SDS011;10250;50.756;6.172;2023-04-16T03:45:19;10.83;;;2.90;;
20181;SDS011;10250;50.756;6.172;2023-04-16T03:47:20;8.73;;;2.70;;
20181;SDS011;10250;50.756;6.172;2023-04-16T03:49:20;10.13;;;3.00;;
20181;SDS011;10250;50.756;6.172;2023-04-16T03:51:21;11.10;;;2.63;;
20181;SDS011;10250;50.756;6.172;2023-04-16T03:53:21;11.27;;;3.03;;
20181;SDS011;10250;50.756;6.172;2023-04-16T03:55:22;9.53;;;2.60;;
20181;SDS011;10250;50.756;6.172;2023-04-16T03:57:22;8.90;;;2.53;;
20181;SDS011;10250;50.756;6.172;2023-04-16T03:59:23;8.60;;;2.40;;
20181;SDS011;10250;50.756;6.172;2023-04-16T04:01:24;9.00;;;2.67;;
20181;SDS011;10250;50.756;6.172;2023-04-16T04:03:24;7.87;;;2.20;;
20181;SDS011;10250;50.756;6.172;2023-04-16T04:05:25;10.73;;;2.70;;
20181;SDS011;10250;50.756;6.172;2023-04-16T04:07:25;9.37;;;2.50;;
20181;SDS011;10250;50.756;6.172;2023-04-16T04:09:26;9.23;;;2.37;;
20181;SDS011;10250;50.756;6.172;2023-04-16T04:11:26;9.57;;;2.33;;
20181;SDS011;10250;50.756;6.172;2023-04-16T04:13:27;8.93;;;2.47;;
20181;SDS011;10250;50.756;6.172;2023-04-16T04:15:28;9.53;;;2.40;;
20181;SDS011;10250;50.756;6.172;2023-04-16T04:17:28;10.13;;;2.50;;
20181;SDS011;10250;50.756;6.172;2023-04-16T04:19:29;9.87;;;2.87;;
20181;SDS011;10250;50.756;6.172;2023-04-16T04:21:30;6.07;;;1.93;;
20181;SDS011;10250;50.756;6.172;2023-04-16T04:23:30;9.63;;;2.80;;
20181;SDS011;10250;50.756;6.172;2023-04-16T04:25:31;9.47;;;2.63;;
20181;SDS011;10250;50.756;6.172;2023-04-16T04:27:32;9.47;;;2.63;;
20181;SDS011;10250;50.756;6.172;2023-04-16T04:29:32;8.97;;;2.27;;
20181;SDS011;10250;50.756;6.172;2023-04-16T04:31:33;10.07;;;2.70;;
20181;SDS011;10250;50.756;6.172;2023-04-16T04:33:33;7.83;;;2.23;;
20181;SDS011;10250;50.756;6.172;2023-04-16T04:35:34;9.87;;;2.50;;
20181;SDS011;10250;50.756;6.172;2023-04-16T04:37:34;12.10;;;2.83;;
20181;SDS011;10250;50.756;6.172;2023-04-16T04:39:35;10.80;;;2.50;;
20181;SDS011;10250;50.756;6.172;2023-04-16T04:41:36;12.17;;;3.30;;
20181;SDS011;10250;50.756;6.172;2023-04-16T04:43:36;9.27;;;2.50;;
20181;SDS011;10250;50.756;6.172;2023-04-16T04:45:37;9.00;;;2.47;;
20181;SDS011;10250;50.756;6.172;2023-04-16T04:47:37;10.97;;;2.47;;
20181;SDS011;10250;50.756;6.172;2023-04-16T04:49:38;9.63;;;2.50;;
20181;SDS011;10250;50.756;6.172;2023-04-16T04:51:38;8.57;;;2.27;;
20181;SDS011;10250;50.756;6.172;2023-04-16T04:53:39;10.27;;;2.70;;
20181;SDS011;10250;50.756;6.172;2023-04-16T04:55:40;8.63;;;2.20;;
20181;SDS011;10250;50.756;6.172;2023-04-16T04:57:40;8.07;;;2.13;;
20181;SDS011;10250;50.756;6.172;2023-04-16T04:59:41;6.27;;;2.03;;
20181;SDS011;10250;50.756;6.172;2023-04-16T05:01:42;6.57;;;1.90;;
20181;SDS011;10250;50.756;6.172;2023-04-16T05:03:42;8.17;;;2.57;;
20181;SDS011;10250;50.756;6.172;2023-04-16T05:05:43;6.47;;;1.90;;
20181;SDS011;10250;50.756;6.172;2023-04-16T05:07:43;9.03;;;2.40;;
20181;SDS011;10250;50.756;6.172;2023-04-16T05:09:44;9.43;;;2.40;;
20181;SDS011;10250;50.756;6.172;2023-04-16T05:11:45;7.57;;;2.10;;
20181;SDS011;10250;50.756;6.172;2023-04-16T05:13:45;8.97;;;2.63;;
20181;SDS011;10250;50.756;6.172;2023-04-16T05:15:46;9.53;;;2.37;;
20181;SDS011;10250;50.756;6.172;2023-04-16T05:17:46;8.63;;;2.33;;
20181;SDS011;10250;50.756;6.172;2023-04-16T05:19:47;7.97;;;2.20;;
20181;SDS011;10250;50.756;6.172;2023-04-16T05:21:47;8.80;;;2.30;;
20181;SDS011;10250;50.756;6.172;2023-04-16T05:23:48;10.03;;;2.63;;
20181;SDS011;10250;50.756;6.172;2023-04-16T05:25:49;8.70;;;2.37;;
20181;SDS011;10250;50.756;6.172;2023-04-16T05:27:49;8.43;;;2.33;;
20181;SDS011;10250;50.756;6.172;2023-04-16T05:29:50;7.60;;;2.27;;
20181;SDS011;10250;50.756;6.172;2023-04-16T05:31:51;10.97;;;2.90;;
20181;SDS011;10250;50.756;6.172;2023-04-16T05:33:51;9.23;;;2.53;;
20181;SDS011;10250;50.756;6.172;2023-04-16T05:35:52;7.53;;;2.23;;
20181;SDS011;10250;50.756;6.172;2023-04-16T05:37:52;7.70;;;2.23;;
20181;SDS011;10250;50.756;6.172;2023-04-16T05:39:53;9.03;;;2.67;;
20181;SDS011;10250;50.756;6.172;2023-04-16T05:41:53;9.47;;;2.40;;
20181;SDS011;10250;50.756;6.172;2023-04-16T05:43:54;8.03;;;2.37;;
20181;SDS011;10250;50.756;6.172;2023-04-16T05:45:55;8.57;;;2.10;;
20181;SDS011;10250;50.756;6.172;2023-04-16T05:47:55;9.77;;;2.60;;
20181;SDS011;10250;50.756;6.172;2023-04-16T05:49:56;9.77;;;2.17;;
20181;SDS011;10250;50.756;6.172;2023-04-16T05:51:56;12.03;;;2.37;;
20181;SDS011;10250;50.756;6.172;2023-04-16T05:53:57;8.30;;;2.30;;
20181;SDS011;10250;50.756;6.172;2023-04-16T05:55:58;8.77;;;2.07;;
20181;SDS011;10250;50.756;6.172;2023-04-16T05:57:58;9.63;;;2.10;;
20181;SDS011;10250;50.756;6.172;2023-04-16T05:59:59;7.93;;;2.07;;
20181;SDS011;10250;50.756;6.172;2023-04-16T06:01:59;8.27;;;2.40;;
20181;SDS011;10250;50.756;6.172;2023-04-16T06:04:00;9.03;;;2.30;;
20181;SDS011;10250;50.756;6.172;2023-04-16T06:06:01;10.23;;;2.40;;
20181;SDS011;10250;50.756;6.172;2023-04-16T06:08:01;7.43;;;2.00;;
20181;SDS011;10250;50.756;6.172;2023-04-16T06:10:02;6.03;;;1.73;;
20181;SDS011;10250;50.756;6.172;2023-04-16T06:12:03;8.53;;;2.20;;
20181;SDS011;10250;50.756;6.172;2023-04-16T06:14:03;7.47;;;2.13;;
20181;SDS011;10250;50.756;6.172;2023-04-16T06:16:04;9.33;;;2.43;;
20181;SDS011;10250;50.756;6.172;2023-04-16T06:18:05;7.37;;;2.03;;
20181;SDS011;10250;50.756;6.172;2023-04-16T06:20:06;7.20;;;2.20;;
20181;SDS011;10250;50.756;6.172;2023-04-16T06:22:07;6.83;;;1.80;;
20181;SDS011;10250;50.756;6.172;2023-04-16T06:24:07;6.73;;;2.00;;
20181;SDS011;10250;50.756;6.172;2023-04-16T06:26:08;10.37;;;2.40;;
20181;SDS011;10250;50.756;6.172;2023-04-16T06:28:09;6.60;;;1.83;;
20181;SDS011;10250;50.756;6.172;2023-04-16T06:30:11;7.33;;;2.30;;
20181;SDS011;10250;50.756;6.172;2023-04-16T06:32:12;7.60;;;2.13;;
20181;SDS011;10250;50.756;6.172;2023-04-16T06:34:13;7.30;;;2.00;;
20181;SDS011;10250;50.756;6.172;2023-04-16T06:36:13;8.60;;;2.10;;
20181;SDS011;10250;50.756;6.172;2023-04-16T06:38:15;6.57;;;1.57;;
20181;SDS011;10250;50.756;6.172;2023-04-16T06:40:16;7.67;;;1.93;;
20181;SDS011;10250;50.756;6.172;2023-04-16T06:42:16;8.57;;;2.40;;
20181;SDS011;10250;50.756;6.172;2023-04-16T06:44:17;5.53;;;1.90;;
20181;SDS011;10250;50.756;6.172;2023-04-16T06:46:17;7.93;;;2.07;;
20181;SDS011;10250;50.756;6.172;2023-04-16T06:48:18;8.27;;;2.00;;
20181;SDS011;10250;50.756;6.172;2023-04-16T06:50:19;7.60;;;2.07;;
20181;SDS011;10250;50.756;6.172;2023-04-16T06:52:21;7.00;;;1.93;;
20181;SDS011;10250;50.756;6.172;2023-04-16T06:54:21;6.07;;;1.87;;
20181;SDS011;10250;50.756;6.172;2023-04-16T06:56:22;9.40;;;2.17;;
20181;SDS011;10250;50.756;6.172;2023-04-16T06:58:22;7.57;;;1.90;;
20181;SDS011;10250;50.756;6.172;2023-04-16T07:00:23;5.67;;;1.83;;
20181;SDS011;10250;50.756;6.172;2023-04-16T07:02:23;8.83;;;2.20;;
20181;SDS011;10250;50.756;6.172;2023-04-16T07:04:24;8.10;;;2.10;;
20181;SDS011;10250;50.756;6.172;2023-04-16T07:06:25;7.43;;;2.00;;
20181;SDS011;10250;50.756;6.172;2023-04-16T07:08:26;9.60;;;2.43;;
20181;SDS011;10250;50.756;6.172;2023-04-16T07:10:26;5.87;;;1.67;;
20181;SDS011;10250;50.756;6.172;2023-04-16T07:12:27;7.80;;;2.17;;
20181;SDS011;10250;50.756;6.172;2023-04-16T07:14:28;6.77;;;1.83;;
20181;SDS011;10250;50.756;6.172;2023-04-16T07:16:28;8.43;;;2.30;;
20181;SDS011;10250;50.756;6.172;2023-04-16T07:18:29;8.83;;;2.47;;
20181;SDS011;10250;50.756;6.172;2023-04-16T07:20:29;7.17;;;1.80;;
20181;SDS011;10250;50.756;6.172;2023-04-16T07:22:30;8.67;;;2.17;;
20181;SDS011;10250;50.756;6.172;2023-04-16T07:24:30;9.40;;;2.17;;
20181;SDS011;10250;50.756;6.172;2023-04-16T07:26:31;8.47;;;1.97;;
20181;SDS011;10250;50.756;6.172;2023-04-16T07:28:32;8.53;;;1.87;;
20181;SDS011;10250;50.756;6.172;2023-04-16T07:30:32;8.67;;;2.53;;
20181;SDS011;10250;50.756;6.172;2023-04-16T07:32:34;9.00;;;2.13;;
20181;SDS011;10250;50.756;6.172;2023-04-16T07:34:34;9.77;;;2.23;;
20181;SDS011;10250;50.756;6.172;2023-04-16T07:36:35;9.53;;;2.17;;
20181;SDS011;10250;50.756;6.172;2023-04-16T07:38:35;8.30;;;2.00;;
20181;SDS011;10250;50.756;6.172;2023-04-16T07:40:36;9.47;;;2.33;;
20181;SDS011;10250;50.756;6.172;2023-04-16T07:42:37;6.43;;;1.73;;
20181;SDS011;10250;50.756;6.172;2023-04-16T07:44:37;8.20;;;2.57;;
20181;SDS011;10250;50.756;6.172;2023-04-16T07:46:38;8.47;;;2.27;;
20181;SDS011;10250;50.756;6.172;2023-04-16T07:48:38;10.43;;;2.80;;
20181;SDS011;10250;50.756;6.172;2023-04-16T07:50:39;8.33;;;2.33;;
20181;SDS011;10250;50.756;6.172;2023-04-16T07:52:42;10.40;;;2.10;;
20181;SDS011;10250;50.756;6.172;2023-04-16T07:54:44;8.70;;;2.30;;
20181;SDS011;10250;50.756;6.172;2023-04-16T07:56:44;12.10;;;2.53;;
20181;SDS011;10250;50.756;6.172;2023-04-16T07:58:45;8.63;;;2.27;;
20181;SDS011;10250;50.756;6.172;2023-04-16T08:00:45;7.17;;;1.80;;
20181;SDS011;10250;50.756;6.172;2023-04-16T08:02:46;10.83;;;2.60;;
20181;SDS011;10250;50.756;6.172;2023-04-16T08:04:47;8.57;;;2.40;;
20181;SDS011;10250;50.756;6.172;2023-04-16T08:06:47;9.57;;;2.50;;
20181;SDS011;10250;50.756;6.172;2023-04-16T08:08:48;8.10;;;2.27;;
20181;SDS011;10250;50.756;6.172;2023-04-16T08:10:49;9.20;;;2.33;;
20181;SDS011;10250;50.756;6.172;2023-04-16T08:12:54;9.47;;;2.50;;
20181;SDS011;10250;50.756;6.172;2023-04-16T08:14:55;8.77;;;2.37;;
20181;SDS011;10250;50.756;6.172;2023-04-16T08:16:55;9.07;;;2.40;;
20181;SDS011;10250;50.756;6.172;2023-04-16T08:18:56;9.73;;;2.30;;
20181;SDS011;10250;50.756;6.172;2023-04-16T08:20:56;8.37;;;2.40;;
20181;SDS011;10250;50.756;6.172;2023-04-16T08:22:57;9.40;;;2.20;;
20181;SDS011;10250;50.756;6.172;2023-04-16T08:24:58;9.07;;;2.13;;
20181;SDS011;10250;50.756;6.172;2023-04-16T08:26:58;7.33;;;1.87;;
20181;SDS011;10250;50.756;6.172;2023-04-16T08:28:59;9.33;;;2.27;;
20181;SDS011;10250;50.756;6.172;2023-04-16T08:30:59;9.93;;;2.67;;
20181;SDS011;10250;50.756;6.172;2023-04-16T08:33:00;8.00;;;2.07;;
20181;SDS011;10250;50.756;6.172;2023-04-16T08:35:01;9.07;;;2.43;;
20181;SDS011;10250;50.756;6.172;2023-04-16T08:37:01;9.03;;;2.40;;
20181;SDS011;10250;50.756;6.172;2023-04-16T08:39:02;7.00;;;2.20;;
20181;SDS011;10250;50.756;6.172;2023-04-16T08:41:04;11.23;;;2.33;;
20181;SDS011;10250;50.756;6.172;2023-04-16T08:43:10;8.10;;;2.10;;
20181;SDS011;10250;50.756;6.172;2023-04-16T08:45:13;9.23;;;2.30;;
20181;SDS011;10250;50.756;6.172;2023-04-16T08:47:15;10.83;;;2.67;;
20181;SDS011;10250;50.756;6.172;2023-04-16T08:49:16;9.07;;;2.27;;
20181;SDS011;10250;50.756;6.172;2023-04-16T08:51:17;9.60;;;2.53;;
20181;SDS011;10250;50.756;6.172;2023-04-16T08:53:19;9.77;;;2.40;;
20181;SDS011;10250;50.756;6.172;2023-04-16T08:57:38;10.37;;;2.43;;
20181;SDS011;10250;50.756;6.172;2023-04-16T08:59:46;6.23;;;1.83;;
20181;SDS011;10250;50.756;6.172;2023-04-16T09:01:47;8.40;;;2.33;;
20181;SDS011;10250;50.756;6.172;2023-04-16T09:03:48;8.17;;;2.03;;
20181;SDS011;10250;50.756;6.172;2023-04-16T09:05:49;8.97;;;2.10;;
20181;SDS011;10250;50.756;6.172;2023-04-16T09:07:51;11.87;;;2.30;;
20181;SDS011;10250;50.756;6.172;2023-04-16T09:09:53;7.20;;;2.07;;
20181;SDS011;10250;50.756;6.172;2023-04-16T09:11:54;8.83;;;2.30;;
20181;SDS011;10250;50.756;6.172;2023-04-16T09:13:55;7.37;;;1.93;;
20181;SDS011;10250;50.756;6.172;2023-04-16T09:15:56;9.03;;;2.20;;
20181;SDS011;10250;50.756;6.172;2023-04-16T09:17:58;7.47;;;1.77;;
20181;SDS011;10250;50.756;6.172;2023-04-16T09:19:59;8.10;;;2.10;;
20181;SDS011;10250;50.756;6.172;2023-04-16T09:21:59;8.30;;;2.00;;
20181;SDS011;10250;50.756;6.172;2023-04-16T09:24:00;9.87;;;2.00;;
20181;SDS011;10250;50.756;6.172;2023-04-16T09:26:03;9.97;;;2.63;;
20181;SDS011;10250;50.756;6.172;2023-04-16T09:28:04;6.20;;;2.00;;
20181;SDS011;10250;50.756;6.172;2023-04-16T09:32:25;8.43;;;2.03;;
20181;SDS011;10250;50.756;6.172;2023-04-16T09:34:27;9.57;;;1.90;;
20181;SDS011;10250;50.756;6.172;2023-04-16T09:36:27;7.53;;;2.07;;
20181;SDS011;10250;50.756;6.172;2023-04-16T09:38:47;10.37;;;2.33;;
20181;SDS011;10250;50.756;6.172;2023-04-16T09:41:04;7.57;;;2.00;;
20181;SDS011;10250;50.756;6.172;2023-04-16T09:43:13;8.03;;;1.90;;
20181;SDS011;10250;50.756;6.172;2023-04-16T09:45:14;9.03;;;2.33;;
20181;SDS011;10250;50.756;6.172;2023-04-16T09:47:15;7.63;;;1.97;;
20181;SDS011;10250;50.756;6.172;2023-04-16T09:49:16;8.13;;;1.90;;
20181;SDS011;10250;50.756;6.172;2023-04-16T09:51:17;8.47;;;1.90;;
20181;SDS011;10250;50.756;6.172;2023-04-16T09:53:25;14.73;;;3.70;;
20181;SDS011;10250;50.756;6.172;2023-04-16T09:55:27;12.83;;;3.43;;
20181;SDS011;10250;50.756;6.172;2023-04-16T09:57:27;16.03;;;4.50;;
20181;SDS011;10250;50.756;6.172;2023-04-16T09:59:29;15.00;;;4.70;;
20181;SDS011;10250;50.756;6.172;2023-04-16T10:01:32;17.57;;;4.60;;
20181;SDS011;10250;50.756;6.172;2023-04-16T10:03:35;13.80;;;3.87;;
20181;SDS011;10250;50.756;6.172;2023-04-16T10:05:37;13.30;;;3.70;;
20181;SDS011;10250;50.756;6.172;2023-04-16T10:07:38;14.07;;;3.33;;
20181;SDS011;10250;50.756;6.172;2023-04-16T10:09:39;12.17;;;2.93;;
20181;SDS011;10250;50.756;6.172;2023-04-16T10:11:40;13.30;;;2.87;;
20181;SDS011;10250;50.756;6.172;2023-04-16T10:13:41;13.17;;;3.40;;
20181;SDS011;10250;50.756;6.172;2023-04-16T10:15:42;15.00;;;3.77;;
20181;SDS011;10250;50.756;6.172;2023-04-16T10:17:43;17.07;;;3.77;;
20181;SDS011;10250;50.756;6.172;2023-04-16T10:19:44;15.57;;;4.90;;
20181;SDS011;10250;50.756;6.172;2023-04-16T10:21:45;14.40;;;3.97;;
20181;SDS011;10250;50.756;6.172;2023-04-16T10:23:47;17.00;;;4.20;;
20181;SDS011;10250;50.756;6.172;2023-04-16T10:25:48;18.27;;;4.47;;
20181;SDS011;10250;50.756;6.172;2023-04-16T10:27:49;14.93;;;3.97;;
20181;SDS011;10250;50.756;6.172;2023-04-16T10:29:51;16.50;;;4.23;;
20181;SDS011;10250;50.756;6.172;2023-04-16T10:31:51;18.67;;;4.43;;
20181;SDS011;10250;50.756;6.172;2023-04-16T10:33:53;16.37;;;4.60;;
20181;SDS011;10250;50.756;6.172;2023-04-16T10:40:26;19.47;;;5.70;;
20181;SDS011;10250;50.756;6.172;2023-04-16T10:42:28;15.63;;;4.73;;
20181;SDS011;10250;50.756;6.172;2023-04-16T10:44:30;17.87;;;5.43;;
20181;SDS011;10250;50.756;6.172;2023-04-16T10:46:32;17.53;;;5.60;;
20181;SDS011;10250;50.756;6.172;2023-04-16T10:48:35;18.87;;;5.23;;
20181;SDS011;10250;50.756;6.172;2023-04-16T10:50:36;18.60;;;5.40;;
20181;SDS011;10250;50.756;6.172;2023-04-16T10:52:37;20.97;;;6.77;;
20181;SDS011;10250;50.756;6.172;2023-04-16T10:54:39;20.07;;;5.63;;
20181;SDS011;10250;50.756;6.172;2023-04-16T10:56:40;17.50;;;5.70;;
20181;SDS011;10250;50.756;6.172;2023-04-16T10:58:44;23.47;;;5.30;;
20181;SDS011;10250;50.756;6.172;2023-04-16T11:00:48;18.73;;;5.77;;
20181;SDS011;10250;50.756;6.172;2023-04-16T11:02:52;19.40;;;5.90;;
20181;SDS011;10250;50.756;6.172;2023-04-16T11:04:53;17.43;;;5.30;;
20181;SDS011;10250;50.756;6.172;2023-04-16T11:07:00;20.63;;;5.77;;
20181;SDS011;10250;50.756;6.172;2023-04-16T11:09:05;18.23;;;5.33;;
20181;SDS011;10250;50.756;6.172;2023-04-16T11:11:06;18.87;;;5.37;;
20181;SDS011;10250;50.756;6.172;2023-04-16T11:13:06;18.93;;;5.97;;
20181;SDS011;10250;50.756;6.172;2023-04-16T11:15:12;19.47;;;5.63;;
20181;SDS011;10250;50.756;6.172;2023-04-16T11:17:13;17.40;;;5.70;;
20181;SDS011;10250;50.756;6.172;2023-04-16T11:19:15;21.23;;;6.07;;
20181;SDS011;10250;50.756;6.172;2023-04-16T11:21:16;20.60;;;6.33;;
20181;SDS011;10250;50.756;6.172;2023-04-16T11:23:18;22.33;;;6.60;;
20181;SDS011;10250;50.756;6.172;2023-04-16T11:25:22;19.90;;;6.43;;
20181;SDS011;10250;50.756;6.172;2023-04-16T11:27:29;18.17;;;5.33;;
20181;SDS011;10250;50.756;6.172;2023-04-16T11:29:30;21.93;;;7.07;;
20181;SDS011;10250;50.756;6.172;2023-04-16T11:31:30;18.10;;;5.33;;
20181;SDS011;10250;50.756;6.172;2023-04-16T11:33:31;19.83;;;6.03;;
20181;SDS011;10250;50.756;6.172;2023-04-16T11:35:32;24.07;;;6.90;;
20181;SDS011;10250;50.756;6.172;2023-04-16T11:37:33;18.47;;;6.73;;
20181;SDS011;10250;50.756;6.172;2023-04-16T11:39:46;21.33;;;5.93;;
20181;SDS011;10250;50.756;6.172;2023-04-16T11:41:50;23.03;;;7.13;;
20181;SDS011;10250;50.756;6.172;2023-04-16T11:43:51;26.30;;;7.03;;
20181;SDS011;10250;50.756;6.172;2023-04-16T11:45:55;20.57;;;6.53;;
20181;SDS011;10250;50.756;6.172;2023-04-16T11:48:06;23.07;;;6.57;;
20181;SDS011;10250;50.756;6.172;2023-04-16T11:50:16;18.70;;;6.57;;
20181;SDS011;10250;50.756;6.172;2023-04-16T11:52:32;23.40;;;6.93;;
20181;SDS011;10250;50.756;6.172;2023-04-16T11:54:33;20.93;;;5.90;;
20181;SDS011;10250;50.756;6.172;2023-04-16T11:56:35;22.13;;;6.67;;
20181;SDS011;10250;50.756;6.172;2023-04-16T11:58:36;18.67;;;6.23;;
20181;SDS011;10250;50.756;6.172;2023-04-16T12:00:36;21.23;;;6.60;;
20181;SDS011;10250;50.756;6.172;2023-04-16T12:02:38;20.87;;;6.27;;
20181;SDS011;10250;50.756;6.172;2023-04-16T12:04:40;20.57;;;7.07;;
20181;SDS011;10250;50.756;6.172;2023-04-16T12:09:25;21.40;;;6.90;;
20181;SDS011;10250;50.756;6.172;2023-04-16T12:11:40;21.63;;;7.57;;
20181;SDS011;10250;50.756;6.172;2023-04-16T12:13:41;20.90;;;6.90;;
20181;SDS011;10250;50.756;6.172;2023-04-16T12:15:51;19.20;;;6.73;;
20181;SDS011;10250;50.756;6.172;2023-04-16T12:18:05;20.20;;;7.17;;
20181;SDS011;10250;50.756;6.172;2023-04-16T12:20:10;22.03;;;6.77;;